createdAt,value
2023-01-13T00:01:27.755Z,9.30
2023-01-13T00:03:55.311Z,9.40
2023-01-13T00:06:29.325Z,9.50
2023-01-13T00:11:26.421Z,9.40
2023-01-13T00:13:54.121Z,9.60
2023-01-13T00:16:22.028Z,9.60
2023-01-13T00:18:51.301Z,9.60
2023-01-13T00:21:24.357Z,9.60
2023-01-13T00:23:55.506Z,9.50
2023-01-13T00:26:30.617Z,9.50
2023-01-13T00:28:59.229Z,9.40
2023-01-13T00:31:28.674Z,9.20
2023-01-13T00:34:00.693Z,9.30
2023-01-13T00:36:29.332Z,9.60
2023-01-13T00:38:56.789Z,9.30
2023-01-13T00:41:26.313Z,9.40
2023-01-13T00:43:53.825Z,9.30
2023-01-13T00:46:22.907Z,9.40
2023-01-13T00:48:51.622Z,9.60
2023-01-13T00:51:21.328Z,9.80
2023-01-13T00:53:52.577Z,9.50
2023-01-13T00:56:38.564Z,9.70
2023-01-13T00:59:06.740Z,9.40
2023-01-13T01:01:34.006Z,9.70
2023-01-13T01:04:01.286Z,9.60
2023-01-13T01:06:29.030Z,9.80
2023-01-13T01:11:31.143Z,9.60
2023-01-13T01:14:02.135Z,9.80
2023-01-13T01:16:31.601Z,9.50
2023-01-13T01:18:59.773Z,9.00
2023-01-13T01:21:28.929Z,9.50
2023-01-13T01:23:59.375Z,9.60
2023-01-13T01:26:28.155Z,9.70
2023-01-13T01:28:56.266Z,9.60
2023-01-13T01:31:32.730Z,9.80
2023-01-13T01:34:01.100Z,9.80
2023-01-13T01:36:30.361Z,9.80
2023-01-13T01:38:59.478Z,9.80
2023-01-13T01:41:31.723Z,9.70
2023-01-13T01:44:03.027Z,9.50
2023-01-13T01:46:44.082Z,9.60
2023-01-13T01:49:26.444Z,9.80
2023-01-13T01:51:54.227Z,9.70
2023-01-13T01:54:30.973Z,9.70
2023-01-13T01:59:32.100Z,9.70
2023-01-13T02:01:59.342Z,9.60
2023-01-13T02:04:35.561Z,9.60
2023-01-13T02:07:04.054Z,9.70
2023-01-13T02:09:32.171Z,9.50
2023-01-13T02:12:18.112Z,9.90
2023-01-13T02:14:45.957Z,10.10
2023-01-13T02:17:22.061Z,9.80
2023-01-13T02:20:03.973Z,9.80
2023-01-13T02:23:08.845Z,9.80
2023-01-13T02:26:19.381Z,9.70
2023-01-13T02:29:49.140Z,9.70
2023-01-13T02:33:03.852Z,9.90
2023-01-13T02:35:40.576Z,10.90
2023-01-13T02:38:11.486Z,9.90
2023-01-13T02:40:55.868Z,9.80
2023-01-13T02:43:57.645Z,9.60
2023-01-13T02:46:31.128Z,10.00
2023-01-13T02:49:05.883Z,10.00
2023-01-13T02:51:34.071Z,9.80
2023-01-13T02:54:11.379Z,9.70
2023-01-13T02:56:45.015Z,9.80
2023-01-13T02:59:13.292Z,9.80
2023-01-13T03:04:45.562Z,9.50
2023-01-13T03:07:44.554Z,9.80
2023-01-13T03:10:34.447Z,9.60
2023-01-13T03:13:14.284Z,9.20
2023-01-13T03:15:53.214Z,9.50
2023-01-13T03:18:32.135Z,9.60
2023-01-13T03:21:26.756Z,9.70
2023-01-13T03:24:27.430Z,9.70
2023-01-13T03:27:04.084Z,9.80
2023-01-13T03:29:49.305Z,10.00
2023-01-13T03:32:35.120Z,9.80
2023-01-13T03:35:17.695Z,9.40
2023-01-13T03:37:51.940Z,9.70
2023-01-13T03:40:28.032Z,9.70
2023-01-13T03:43:19.558Z,9.70
2023-01-13T03:45:55.211Z,9.70
2023-01-13T03:48:26.368Z,9.30
2023-01-13T03:50:58.216Z,9.30
2023-01-13T03:53:31.412Z,9.50
2023-01-13T03:56:09.142Z,9.60
2023-01-13T03:58:41.875Z,9.90
2023-01-13T04:01:21.204Z,9.70
2023-01-13T04:04:03.774Z,9.70
2023-01-13T04:06:53.304Z,9.50
2023-01-13T04:09:49.563Z,9.50
2023-01-13T04:12:23.785Z,9.70
2023-01-13T04:14:52.371Z,9.60
2023-01-13T04:17:20.647Z,9.80
2023-01-13T04:19:47.647Z,9.70
2023-01-13T04:22:14.613Z,9.70
2023-01-13T04:24:41.554Z,9.70
2023-01-13T04:27:08.544Z,9.40
2023-01-13T04:29:35.547Z,9.40
2023-01-13T04:32:02.563Z,9.50
2023-01-13T04:39:24.494Z,9.50
2023-01-13T04:41:57.725Z,9.40
2023-01-13T04:44:25.062Z,9.60
2023-01-13T04:46:52.195Z,9.60
2023-01-13T04:49:19.155Z,9.20
2023-01-13T04:54:13.600Z,9.60
2023-01-13T04:56:40.568Z,9.70
2023-01-13T04:59:08.807Z,9.80
2023-01-13T05:01:35.776Z,9.80
2023-01-13T05:04:03.325Z,9.60
2023-01-13T05:06:30.428Z,9.60
2023-01-13T05:08:57.457Z,9.70
2023-01-13T05:11:42.841Z,9.60
2023-01-13T05:14:28.956Z,9.70
2023-01-13T05:17:03.591Z,9.70
2023-01-13T05:19:40.798Z,9.70
2023-01-13T05:22:26.171Z,9.80
2023-01-13T05:27:39.003Z,9.70
2023-01-13T05:30:07.780Z,9.90
2023-01-13T05:32:34.756Z,9.70
2023-01-13T05:35:01.695Z,9.70
2023-01-13T05:37:28.724Z,10.00
2023-01-13T05:40:14.723Z,10.10
2023-01-13T05:43:00.479Z,9.90
2023-01-13T05:45:27.603Z,9.90
2023-01-13T05:47:54.836Z,10.00
2023-01-13T05:50:21.823Z,10.00
2023-01-13T05:52:49.126Z,10.00
2023-01-13T05:55:16.209Z,10.20
2023-01-13T05:57:43.191Z,10.10
2023-01-13T06:00:10.890Z,10.20
2023-01-13T06:02:40.775Z,10.00
2023-01-13T06:05:08.599Z,9.90
2023-01-13T06:07:35.607Z,9.60
2023-01-13T06:10:02.549Z,9.80
2023-01-13T06:12:29.509Z,10.10
2023-01-13T06:14:56.471Z,10.20
2023-01-13T06:17:23.441Z,10.10
2023-01-13T06:19:51.100Z,9.80
2023-01-13T06:22:24.533Z,9.90
2023-01-13T06:24:53.763Z,10.20
2023-01-13T06:27:22.367Z,10.10
2023-01-13T06:29:49.725Z,10.00
2023-01-13T06:32:20.955Z,10.00
2023-01-13T06:34:57.837Z,10.00
2023-01-13T06:37:26.211Z,10.00
2023-01-13T06:39:58.462Z,9.90
2023-01-13T06:42:46.777Z,9.90
2023-01-13T06:45:14.227Z,9.70
2023-01-13T06:47:41.511Z,10.20
2023-01-13T06:50:09.649Z,10.10
2023-01-13T06:52:36.658Z,10.00
2023-01-13T06:55:04.304Z,9.80
2023-01-13T06:57:31.258Z,10.20
2023-01-13T06:59:58.216Z,10.00
2023-01-13T07:02:25.933Z,10.10
2023-01-13T07:04:52.976Z,10.10
2023-01-13T07:07:19.943Z,10.00
2023-01-13T07:09:46.917Z,9.80
2023-01-13T07:12:17.019Z,9.70
2023-01-13T07:15:02.439Z,10.00
2023-01-13T07:17:29.369Z,9.90
2023-01-13T07:19:57.999Z,9.90
2023-01-13T07:22:25.128Z,9.90
2023-01-13T07:24:52.116Z,9.80
2023-01-13T07:29:46.431Z,9.80
2023-01-13T07:32:13.364Z,9.90
2023-01-13T07:34:40.315Z,10.00
2023-01-13T07:37:07.306Z,10.00
2023-01-13T07:39:34.263Z,9.80
2023-01-13T07:42:20.104Z,9.90
2023-01-13T07:44:47.194Z,9.90
2023-01-13T07:47:14.599Z,9.80
2023-01-13T07:49:41.544Z,10.00
2023-01-13T07:52:08.935Z,10.00
2023-01-13T07:54:40.993Z,9.80
2023-01-13T07:57:08.554Z,9.90
2023-01-13T07:59:35.478Z,9.90
2023-01-13T08:04:30.216Z,9.90
2023-01-13T08:09:24.623Z,9.80
2023-01-13T08:12:13.068Z,9.80
2023-01-13T08:14:40.271Z,10.00
2023-01-13T08:17:10.483Z,10.80
2023-01-13T08:22:05.048Z,10.10
2023-01-13T08:24:32.014Z,9.80
2023-01-13T08:29:26.336Z,9.80
2023-01-13T08:31:53.309Z,9.70
2023-01-13T08:36:50.532Z,9.60
2023-01-13T08:39:18.631Z,9.60
2023-01-13T08:41:58.469Z,9.70
2023-01-13T08:44:31.670Z,9.40
2023-01-13T08:49:26.907Z,9.20
2023-01-13T08:54:21.410Z,9.10
2023-01-13T08:59:19.215Z,8.80
2023-01-13T09:04:20.883Z,8.90
2023-01-13T09:06:48.622Z,8.80
2023-01-13T09:09:15.687Z,8.60
2023-01-13T09:12:04.698Z,8.50
2023-01-13T09:14:35.014Z,8.30
2023-01-13T09:17:02.511Z,8.40
2023-01-13T09:19:30.324Z,8.20
2023-01-13T09:21:57.796Z,8.20
2023-01-13T09:24:25.524Z,8.10
2023-01-13T09:34:37.254Z,8.00
2023-01-13T09:37:06.728Z,8.10
2023-01-13T09:39:35.440Z,8.10
2023-01-13T09:43:00.727Z,7.90
2023-01-13T09:45:58.063Z,8.00
2023-01-13T09:48:51.812Z,8.00
2023-01-13T09:51:35.679Z,8.20
2023-01-13T09:54:32.415Z,8.20
2023-01-13T09:56:59.856Z,8.10
2023-01-13T09:59:36.448Z,8.40
2023-01-13T10:02:37.923Z,8.10
2023-01-13T10:05:20.074Z,8.30
2023-01-13T10:07:57.372Z,8.10
2023-01-13T10:10:47.154Z,8.20
2023-01-13T10:13:31.734Z,8.20
2023-01-13T10:16:10.684Z,8.20
2023-01-13T10:19:05.422Z,8.10
2023-01-13T10:22:15.683Z,8.10
2023-01-13T10:25:20.622Z,7.80
2023-01-13T10:27:55.961Z,8.20
2023-01-13T10:30:34.615Z,8.20
2023-01-13T10:33:21.462Z,8.20
2023-01-13T10:36:02.750Z,8.50
2023-01-13T10:38:38.688Z,8.20
2023-01-13T10:41:14.663Z,8.10
2023-01-13T10:44:16.517Z,8.00
2023-01-13T10:46:58.746Z,8.20
2023-01-13T10:49:38.633Z,8.10
2023-01-13T10:52:27.278Z,8.10
2023-01-13T10:54:55.512Z,7.70
2023-01-13T10:57:28.155Z,8.30
2023-01-13T10:59:56.294Z,8.70
2023-01-13T11:02:29.426Z,8.20
2023-01-13T11:04:58.051Z,7.40
2023-01-13T11:07:40.663Z,8.70
2023-01-13T11:10:21.274Z,8.20
2023-01-13T11:13:36.338Z,8.20
2023-01-13T11:16:16.707Z,8.10
2023-01-13T11:19:14.168Z,7.80
2023-01-13T11:22:01.043Z,8.20
2023-01-13T11:24:52.759Z,7.80
2023-01-13T11:27:55.582Z,7.80
2023-01-13T11:30:41.234Z,8.00
2023-01-13T11:33:41.777Z,7.90
2023-01-13T11:36:23.685Z,8.10
2023-01-13T11:38:59.003Z,7.80
2023-01-13T11:41:39.893Z,7.90
2023-01-13T11:44:24.579Z,7.80
2023-01-13T11:46:53.674Z,9.10
2023-01-13T11:49:29.528Z,7.90
2023-01-13T11:52:21.785Z,7.80
2023-01-13T11:55:24.077Z,7.70
2023-01-13T11:58:33.708Z,7.90
2023-01-13T12:01:27.808Z,8.70
2023-01-13T12:04:22.886Z,7.90
2023-01-13T12:07:41.316Z,7.80
2023-01-13T12:10:30.033Z,7.90
2023-01-13T12:13:25.636Z,7.90
2023-01-13T12:16:14.669Z,8.00
2023-01-13T12:19:25.016Z,8.10
2023-01-13T12:22:16.450Z,8.20
2023-01-13T12:24:58.334Z,7.80
2023-01-13T12:27:53.757Z,8.40
2023-01-13T12:30:52.313Z,8.30
2023-01-13T12:33:52.017Z,8.10
2023-01-13T12:36:32.301Z,8.00
2023-01-13T12:39:13.487Z,8.00
2023-01-13T12:42:23.501Z,8.10
2023-01-13T12:45:12.421Z,8.00
2023-01-13T12:47:44.676Z,8.10
2023-01-13T12:50:23.880Z,7.80
2023-01-13T12:53:00.286Z,8.70
2023-01-13T12:58:06.586Z,8.20
2023-01-13T13:00:39.809Z,8.20
2023-01-13T13:03:33.345Z,8.20
2023-01-13T13:06:21.940Z,8.20
2023-01-13T13:09:14.210Z,8.30
2023-01-13T13:11:59.611Z,8.80
2023-01-13T13:14:41.833Z,9.20
2023-01-13T13:17:31.641Z,9.10
2023-01-13T13:20:00.448Z,8.90
2023-01-13T13:27:47.838Z,8.80
2023-01-13T13:30:29.862Z,9.80
2023-01-13T13:33:20.895Z,10.40
2023-01-13T13:36:06.618Z,10.40
2023-01-13T13:39:26.323Z,9.60
2023-01-13T13:42:27.440Z,9.10
2023-01-13T13:45:13.917Z,9.00
2023-01-13T13:50:21.725Z,8.80
2023-01-13T13:53:05.356Z,9.10
2023-01-13T13:55:32.876Z,8.90
2023-01-13T13:58:01.662Z,8.50
2023-01-13T14:00:35.952Z,8.70
2023-01-13T14:05:36.133Z,8.80
2023-01-13T14:08:18.088Z,10.20
2023-01-13T14:10:46.761Z,8.80
2023-01-13T14:13:26.168Z,8.60
2023-01-13T14:16:11.004Z,8.60
2023-01-13T14:18:48.455Z,8.60
2023-01-13T14:21:19.228Z,8.40
2023-01-13T14:23:56.768Z,8.00
2023-01-13T14:26:31.033Z,8.40
2023-01-13T14:29:01.136Z,8.50
2023-01-13T14:31:29.121Z,8.30
2023-01-13T14:33:59.704Z,8.30
2023-01-13T14:36:37.949Z,8.20
2023-01-13T14:41:47.062Z,7.90
2023-01-13T14:49:52.397Z,8.00
2023-01-13T14:52:23.379Z,7.90
2023-01-13T14:55:08.507Z,7.80
2023-01-13T14:57:39.466Z,7.70
2023-01-13T15:00:23.601Z,7.70
2023-01-13T15:02:53.716Z,7.70
2023-01-13T15:08:14.080Z,7.60
2023-01-13T15:11:00.154Z,7.60
2023-01-13T15:13:42.663Z,7.60
2023-01-13T15:16:24.835Z,7.60
2023-01-13T15:21:20.372Z,7.50
2023-01-13T15:26:28.817Z,7.60
2023-01-13T15:28:58.332Z,7.20
2023-01-13T15:31:27.515Z,7.30
2023-01-13T15:36:27.687Z,7.30
2023-01-13T15:38:54.942Z,7.20
2023-01-13T15:44:33.741Z,7.20
2023-01-13T15:47:06.292Z,7.20
2023-01-13T15:49:46.334Z,7.20
2023-01-13T15:52:23.346Z,7.10
2023-01-13T15:57:31.038Z,7.10
2023-01-13T16:00:01.838Z,7.20
2023-01-13T16:09:56.904Z,7.00
2023-01-13T16:14:51.467Z,6.90
2023-01-13T16:17:24.191Z,7.20
2023-01-13T16:19:52.195Z,7.00
2023-01-13T16:22:19.287Z,7.10
2023-01-13T16:27:23.180Z,7.00
2023-01-13T16:29:52.017Z,7.00
2023-01-13T16:32:22.108Z,7.00
2023-01-13T16:37:25.684Z,6.90
2023-01-13T16:39:54.244Z,7.10
2023-01-13T16:42:21.938Z,7.00
2023-01-13T16:47:18.779Z,7.00
2023-01-13T16:49:46.272Z,7.10
2023-01-13T16:57:14.340Z,7.00
2023-01-13T16:59:41.328Z,7.00
2023-01-13T17:02:14.720Z,6.80
2023-01-13T17:04:41.754Z,6.90
2023-01-13T17:14:32.427Z,6.50
2023-01-13T17:16:59.373Z,6.90
2023-01-13T17:19:26.538Z,6.70
2023-01-13T17:21:53.880Z,6.90
2023-01-13T17:26:50.923Z,7.00
2023-01-13T17:29:25.142Z,7.50
2023-01-13T17:34:21.243Z,6.90
2023-01-13T17:39:22.239Z,6.70
2023-01-13T17:41:50.473Z,6.90
2023-01-13T17:44:20.359Z,6.90
2023-01-13T17:46:48.894Z,6.90
2023-01-13T17:49:18.700Z,6.90
2023-01-13T17:56:43.771Z,6.90
2023-01-13T17:59:15.909Z,6.90
2023-01-13T18:04:24.036Z,6.80
2023-01-13T18:06:51.576Z,7.00
2023-01-13T18:09:18.551Z,7.10
2023-01-13T18:11:47.219Z,7.00
2023-01-13T18:16:43.347Z,7.20
2023-01-13T18:19:29.619Z,7.20
2023-01-13T18:22:14.922Z,7.10
2023-01-13T18:27:33.503Z,7.00
2023-01-13T18:30:03.460Z,7.00
2023-01-13T18:32:33.392Z,7.10
2023-01-13T18:35:06.374Z,7.00
2023-01-13T18:40:09.368Z,7.10
2023-01-13T18:42:54.106Z,7.20
2023-01-13T18:45:30.422Z,7.10
2023-01-13T18:48:01.596Z,7.10
2023-01-13T18:50:29.331Z,7.10
2023-01-13T18:55:24.384Z,7.00
2023-01-13T18:57:51.866Z,7.10
2023-01-13T19:00:21.107Z,7.10
2023-01-13T19:02:50.654Z,7.00
2023-01-13T19:15:12.992Z,7.70
2023-01-13T19:17:40.093Z,7.20
2023-01-13T19:22:35.353Z,7.20
2023-01-13T19:25:04.525Z,7.30
2023-01-13T19:27:32.029Z,7.40
2023-01-13T19:30:00.637Z,7.30
2023-01-13T19:32:30.603Z,7.00
2023-01-13T19:40:00.459Z,7.20
2023-01-13T19:45:27.335Z,7.10
2023-01-13T19:47:56.044Z,7.10
2023-01-13T19:50:23.415Z,7.10
2023-01-13T19:55:19.678Z,7.10
2023-01-13T19:57:46.846Z,6.90
2023-01-13T20:00:18.300Z,6.90
2023-01-13T20:02:49.098Z,7.00
2023-01-13T20:05:22.592Z,6.90
2023-01-13T20:07:51.145Z,6.80
2023-01-13T20:10:20.927Z,6.80
2023-01-13T20:15:15.635Z,6.30
2023-01-13T20:17:42.646Z,6.80
2023-01-13T20:20:11.871Z,6.80
2023-01-13T20:22:39.763Z,6.90
2023-01-13T20:25:08.428Z,6.90
2023-01-13T20:27:37.241Z,6.90
2023-01-13T20:30:06.101Z,6.60
2023-01-13T20:32:33.062Z,6.60
2023-01-13T20:35:00.045Z,6.90
2023-01-13T20:37:27.372Z,6.90
2023-01-13T20:39:55.257Z,6.90
2023-01-13T20:42:31.909Z,6.90
2023-01-13T20:45:01.062Z,6.70
2023-01-13T20:47:29.486Z,6.80
2023-01-13T20:49:56.605Z,7.10
2023-01-13T20:52:24.671Z,7.00
2023-01-13T21:02:16.511Z,6.60
2023-01-13T21:04:44.033Z,6.50
2023-01-13T21:07:11.249Z,6.70
2023-01-13T21:12:25.316Z,6.80
2023-01-13T21:15:11.118Z,6.60
2023-01-13T21:17:56.912Z,6.70
2023-01-13T21:20:23.864Z,6.60
2023-01-13T21:22:50.892Z,6.50
2023-01-13T21:25:19.349Z,6.80
2023-01-13T21:27:46.739Z,6.90
2023-01-13T21:30:15.523Z,6.70
2023-01-13T21:32:44.385Z,6.60
2023-01-13T21:35:12.562Z,6.50
2023-01-13T21:37:42.604Z,6.70
2023-01-13T21:40:13.064Z,6.50
2023-01-13T21:42:58.574Z,6.50
2023-01-13T21:48:11.498Z,6.40
2023-01-13T21:50:38.678Z,6.50
2023-01-13T21:55:36.765Z,6.50
2023-01-13T21:58:11.904Z,6.30
2023-01-13T22:00:41.353Z,6.40
2023-01-13T22:03:11.262Z,6.80
2023-01-13T22:05:38.747Z,6.60
2023-01-13T22:08:06.407Z,6.50
2023-01-13T22:10:34.298Z,6.50
2023-01-13T22:13:22.918Z,6.50
2023-01-13T22:18:18.267Z,6.60
2023-01-13T22:20:45.763Z,6.60
2023-01-13T22:25:40.439Z,6.50
2023-01-13T22:28:09.127Z,7.40
2023-01-13T22:30:36.394Z,6.60
2023-01-13T22:33:03.547Z,6.60
2023-01-13T22:35:30.546Z,6.50
2023-01-13T22:37:58.327Z,6.40
2023-01-13T22:40:25.257Z,6.50
2023-01-13T22:47:47.643Z,6.20
2023-01-13T22:57:47.704Z,6.40
2023-01-13T23:00:18.924Z,6.60
2023-01-13T23:05:13.944Z,6.40
2023-01-13T23:10:09.270Z,6.40
2023-01-13T23:12:36.235Z,6.40
2023-01-13T23:15:04.337Z,6.10
2023-01-13T23:19:58.745Z,6.40
2023-01-13T23:22:25.780Z,6.60
2023-01-13T23:32:16.112Z,6.50
2023-01-13T23:34:43.050Z,6.40
2023-01-13T23:37:09.977Z,6.10
2023-01-13T23:39:36.974Z,6.20
2023-01-13T23:44:31.307Z,6.20
2023-01-13T23:46:58.590Z,6.20
2023-01-13T23:51:53.136Z,6.10
2023-01-13T23:54:20.086Z,6.20
2023-01-13T23:56:50.418Z,6.40
2023-01-13T23:59:17.385Z,6.10
